福島空港の過去48時間の天気

福島空港 (Fukushima)

現在時刻: 9/17 00:14 JST (9/16 15:14 UTC) 以下の時間は現地時間です。

過去48時間のMETAR気象情報
時間 風向 風速(m/s) 視程 気温(℃) 湿度(%) 気圧(hPa) 天気現象
16 20:00 5 10km以上 21 94 1004
16 19:00 5 10km以上 21 100 1004
16 18:00 5 10km以上 21 100 1003
16 17:00 北北東 6 10km以上 21 100 1003
16 16:11 北北東 6 10km以上 21 100 1003
16 16:00 北北東 6 10km以上 21 100 1003 弱いしゅう雨
16 15:42 6 2000m 21 100 1003 弱いしゅう雨 もや
16 15:36 7 3000m 21 100 1003 弱いしゅう雨 もや
16 15:00 6 10km以上 21 100 1003 もや
16 14:34 7 10km以上 21 100 1002 もや
16 14:10 7 10km以上 21 100 1002 弱いしゅう雨 もや
16 14:00 7 4000m 21 100 1003 弱いしゅう雨 もや
16 13:21 5 2000m 21 100 1003 しゅう雨 もや
16 13:00 5 2000m 20 100 1004 しゅう雨 もや
16 12:43 北北西 4 3000m 20 100 1004 しゅう雨 もや
16 12:00 6 4000m 20 100 1004 しゅう雨 もや
16 11:28 6 8000m 20 100 1004 しゅう雨 もや
16 11:00 6 8000m 21 100 1005 しゅう雨 もや
16 10:24 5 7000m 21 100 1006 弱いしゅう雨 もや
16 10:00 5 10km以上 20 100 1006 弱いしゅう雨 もや
16 09:42 5 10km以上 20 100 1006 もや
16 09:00 5 8000m 20 100 1006 弱いしゅう雨 もや
16 08:33 6 3000m 20 100 1007 もや
16 08:15 5 2000m 20 100 1007 もや
16 08:00 5 1500m 20 100 1007 弱いしゅう雨 もや
16 07:27 5 1500m 20 100 1007 しゅう雨 もや
16 07:14 5 1000m 20 100 1007 強いしゅう雨 もや
16 07:06 5 1200m 20 100 1007 しゅう雨 もや
16 07:00 5 1500m 19 100 1007 弱いしゅう雨 もや
16 06:40 5 2000m 19 100 1007 弱いしゅう雨 もや
15 20:00 東北東 2 10km以上 23 73 1011
15 19:00 4 10km以上 23 78 1010
15 18:00 3 10km以上 23 73 1010
15 17:00 東南東 3 10km以上 25 65 1010
15 16:00 東南東 2 10km以上 27 54 1010
15 15:00 東南東 2 10km以上 27 54 1010
15 14:00 東南東 3 10km以上 28 48 1010
15 13:00 不定 1 10km以上 27 51 1011
15 12:00 不定 2 10km以上 26 54 1012
15 11:00 不定 1 10km以上 25 57 1012
15 10:00 3 10km以上 24 61 1013
15 09:00 南南東 2 10km以上 23 73 1013
15 08:00 不定 1 10km以上 21 73 1013
15 07:00 南南東 2 10km以上 20 78 1013
15 06:40 東南東 1 10km以上 20 83 1013
RJSF 161100Z 36009KT 9999 FEW010 BKN040 21/20 Q1004
RJSF 161000Z 01010KT 9999 FEW005 BKN050 BKN060 21/21 Q1004
RJSF 160900Z 36010KT 9999 FEW005 SCT045 BKN150 21/21 Q1003
RJSF 160800Z 02012KT 9999 FEW008 SCT035 BKN140 21/21 Q1003
RJSF 160711Z 02011KT 9999 FEW005 BKN025 BKN030 21/21 Q1003 RMK 1ST005 5CU025 7CU030 A2963
RJSF 160700Z 02012KT 9999 -SHRA FEW004 BKN005 BKN025 21/21 Q1003
RJSF 160642Z 01012KT 2000 -SHRA BR FEW003 BKN004 BKN012 21/21 Q1003 RMK 2ST003 5ST004 7CU012 A2963
RJSF 160636Z 01013KT 3000 -SHRA BR FEW003 BKN004 BKN012 21/21 Q1003 RMK 2ST003 5ST004 7CU012 A2963
RJSF 160600Z 35011KT 9999 BR SCT003 BKN004 BKN012 21/21 Q1003
RJSF 160534Z 36014KT 9999 BR FEW003 BKN004 BKN012 21/21 Q1002 RMK 2ST003 5ST004 7CU012 A2961 4500NE-SE
RJSF 160510Z 36014KT 9999 -SHRA BR FEW002 BKN003 BKN004 21/21 Q1002 RMK 2ST002 6ST003 7ST004 A2961 4000NE-SE
RJSF 160500Z 35014KT 4000 -SHRA BR FEW001 SCT002 BKN003 21/21 Q1003
RJSF 160421Z 36010KT 2000 SHRA BR FEW001 BKN002 BKN003 21/21 Q1003 RMK 1ST001 5ST002 7ST003 A2964 5000S-SW
RJSF 160400Z 35010KT 2000 SHRA BR FEW001 BKN002 BKN003 20/20 Q1004
RJSF 160343Z 34008KT 3000 SHRA BR FEW001 SCT002 BKN003 20/20 Q1004 RMK 1ST001 3ST002 6ST003 A2965
RJSF 160300Z 35011KT 4000 SHRA BR FEW001 BKN003 BKN004 20/20 Q1004
RJSF 160228Z 35011KT 8000 SHRA BR FEW001 BKN003 BKN004 20/20 Q1004 RMK 1ST001 5ST003 7ST004 A2967 3000NE-SE
RJSF 160200Z 35011KT 8000 SHRA BR FEW001 SCT003 BKN004 21/21 Q1005
RJSF 160124Z 35009KT 7000 -SHRA BR FEW001 SCT003 BKN004 21/21 Q1006 RMK 1ST001 3ST003 5ST004 A2971 3000NE-SE
RJSF 160100Z 35009KT 9999 -SHRA BR FEW001 SCT004 BKN005 20/20 Q1006
RJSF 160042Z 35009KT 9999 BR FEW001 SCT003 BKN004 20/20 Q1006 RMK 1ST001 3ST003 5ST004 A2973 3000NE-SE
RJSF 160000Z 35009KT 8000 -SHRA BR FEW001 BKN002 BKN003 20/20 Q1006
RJSF 152333Z 35011KT 3000 BR FEW001 SCT002 BKN003 20/20 Q1007 RMK 1ST001 4ST002 6ST003 A2974 7000S-SW
RJSF 152315Z 35010KT 2000 BR FEW001 BKN002 BKN003 20/20 Q1007 RMK 1ST001 6ST002 7ST003 A2974 5000S-SW
RJSF 152300Z 35009KT 1500 R01/P1800N -SHRA BR FEW001 BKN002 BKN003 20/20 Q1007
RJSF 152227Z 36010KT 1500 R01/1100VP1800U SHRA BR FEW001 SCT002 BKN003 20/20 Q1007 RMK 1ST001 4ST002 7ST003 A2975
RJSF 152214Z 35009KT 1000 R01/0900V1800D +SHRA BR FEW001 BKN002 BKN003 20/20 Q1007 RMK 1ST001 6ST002 7ST003 A2975
RJSF 152206Z 35009KT 1200 R01/1600VP1800D SHRA BR FEW001 BKN002 BKN003 20/20 Q1007 RMK 1ST001 6ST002 7ST003 A2976
RJSF 152200Z 35009KT 1500 R01/P1800N -SHRA BR FEW001 BKN002 BKN003 19/19 Q1007
RJSF 152140Z 35009KT 2000 -SHRA BR FEW001 BKN002 BKN003 19/19 Q1007 RMK 1ST001 6ST002 7ST003 A2975 5000S-SW
RJSF 151100Z 07003KT 010V120 9999 FEW015 BKN045 23/18 Q1011
RJSF 151000Z 10008KT 070V140 9999 FEW015 BKN050 23/19 Q1010
RJSF 150900Z 10006KT 070V140 9999 FEW020 23/18 Q1010
RJSF 150800Z 11006KT 080V140 9999 FEW030 25/18 Q1010
RJSF 150700Z 11004KT 9999 FEW035 27/17 Q1010
RJSF 150600Z 12003KT 060V180 9999 FEW040 27/17 Q1010
RJSF 150500Z 12005KT 080V170 9999 FEW030 28/16 Q1010
RJSF 150400Z VRB02KT 9999 FEW035 27/16 Q1011
RJSF 150300Z VRB03KT 9999 FEW035 26/16 Q1012
RJSF 150200Z VRB02KT 9999 FEW035 25/16 Q1012
RJSF 150100Z 18005KT 120V230 9999 FEW025 24/16 Q1013
RJSF 150000Z 15004KT 090V210 9999 FEW015 23/18 Q1013
RJSF 142300Z VRB02KT 9999 FEW015 21/16 Q1013
RJSF 142200Z 15003KT 9999 FEW010 20/16 Q1013
RJSF 142140Z 12002KT 9999 FEW010 20/17 Q1013 RMK 1ST010 A2994